sensor_id;sensor_type;location;lat;lon;timestamp;pressure;altitude;pressure_sealevel;temperature;humidity
30967;BME280;17649;51.836;8.330;2023-03-01T00:02:55;102473.34;;;-0.18;100.00
30967;BME280;17649;51.836;8.330;2023-03-01T00:05:55;102478.41;;;-0.21;100.00
30967;BME280;17649;51.836;8.330;2023-03-01T00:08:56;102470.69;;;-0.26;100.00
30967;BME280;17649;51.836;8.330;2023-03-01T00:11:57;102465.66;;;-0.23;100.00
30967;BME280;17649;51.836;8.330;2023-03-01T00:14:58;102486.06;;;-0.18;100.00
30967;BME280;17649;51.836;8.330;2023-03-01T00:17:58;102485.22;;;-0.19;100.00
30967;BME280;17649;51.836;8.330;2023-03-01T00:20:59;102484.34;;;-0.21;100.00
30967;BME280;17649;51.836;8.330;2023-03-01T00:24:00;102483.34;;;-0.29;100.00
30967;BME280;17649;51.836;8.330;2023-03-01T00:27:01;102478.94;;;-0.38;100.00
30967;BME280;17649;51.836;8.330;2023-03-01T00:30:02;102489.78;;;-0.45;100.00
30967;BME280;17649;51.836;8.330;2023-03-01T00:33:06;102488.09;;;-0.46;100.00
30967;BME280;17649;51.836;8.330;2023-03-01T00:36:07;102492.22;;;-0.51;100.00
30967;BME280;17649;51.836;8.330;2023-03-01T00:39:11;102484.50;;;-0.55;100.00
30967;BME280;17649;51.836;8.330;2023-03-01T00:42:15;102481.09;;;-0.57;100.00
30967;BME280;17649;51.836;8.330;2023-03-01T00:45:16;102481.84;;;-0.60;100.00
30967;BME280;17649;51.836;8.330;2023-03-01T00:48:17;102473.31;;;-0.64;100.00
30967;BME280;17649;51.836;8.330;2023-03-01T00:51:20;102475.91;;;-0.61;100.00
30967;BME280;17649;51.836;8.330;2023-03-01T00:54:21;102475.00;;;-0.64;100.00
30967;BME280;17649;51.836;8.330;2023-03-01T00:57:21;102463.88;;;-0.71;100.00
30967;BME280;17649;51.836;8.330;2023-03-01T01:00:22;102477.44;;;-0.70;100.00
30967;BME280;17649;51.836;8.330;2023-03-01T01:03:23;102481.59;;;-0.74;100.00
30967;BME280;17649;51.836;8.330;2023-03-01T01:06:27;102485.03;;;-0.72;100.00
30967;BME280;17649;51.836;8.330;2023-03-01T01:09:28;102475.72;;;-0.71;100.00
30967;BME280;17649;51.836;8.330;2023-03-01T01:12:29;102477.44;;;-0.70;100.00
30967;BME280;17649;51.836;8.330;2023-03-01T01:15:33;102471.50;;;-0.71;100.00
30967;BME280;17649;51.836;8.330;2023-03-01T01:18:35;102473.19;;;-0.71;100.00
30967;BME280;17649;51.836;8.330;2023-03-01T01:21:35;102454.34;;;-0.79;100.00
30967;BME280;17649;51.836;8.330;2023-03-01T01:24:36;102452.66;;;-0.79;100.00
30967;BME280;17649;51.836;8.330;2023-03-01T01:27:36;102450.91;;;-0.81;100.00
30967;BME280;17649;51.836;8.330;2023-03-01T01:30:37;102442.41;;;-0.83;100.00
30967;BME280;17649;51.836;8.330;2023-03-01T01:33:37;102450.00;;;-0.85;100.00
30967;BME280;17649;51.836;8.330;2023-03-01T01:36:38;102442.34;;;-0.86;100.00
30967;BME280;17649;51.836;8.330;2023-03-01T01:39:38;102433.06;;;-0.84;100.00
30967;BME280;17649;51.836;8.330;2023-03-01T01:42:38;102433.94;;;-0.84;100.00
30967;BME280;17649;51.836;8.330;2023-03-01T01:45:40;102433.06;;;-0.84;100.00
30967;BME280;17649;51.836;8.330;2023-03-01T01:48:45;102427.16;;;-0.83;100.00
30967;BME280;17649;51.836;8.330;2023-03-01T01:51:48;102426.28;;;-0.85;100.00
30967;BME280;17649;51.836;8.330;2023-03-01T01:54:57;102424.66;;;-0.82;100.00
30967;BME280;17649;51.836;8.330;2023-03-01T01:58:03;102429.78;;;-0.79;100.00
30967;BME280;17649;51.836;8.330;2023-03-01T02:01:05;102424.63;;;-0.83;100.00
30967;BME280;17649;51.836;8.330;2023-03-01T02:04:06;102422.09;;;-0.82;100.00
30967;BME280;17649;51.836;8.330;2023-03-01T02:07:14;102414.38;;;-0.88;100.00
30967;BME280;17649;51.836;8.330;2023-03-01T02:10:15;102411.56;;;-1.00;100.00
30967;BME280;17649;51.836;8.330;2023-03-01T02:13:16;102413.94;;;-1.08;100.00
30967;BME280;17649;51.836;8.330;2023-03-01T02:16:17;102418.94;;;-1.11;100.00
30967;BME280;17649;51.836;8.330;2023-03-01T02:19:31;102417.22;;;-1.13;100.00
30967;BME280;17649;51.836;8.330;2023-03-01T02:22:37;102416.34;;;-1.14;100.00
30967;BME280;17649;51.836;8.330;2023-03-01T02:28:43;102410.34;;;-1.17;100.00
30967;BME280;17649;51.836;8.330;2023-03-01T02:31:44;102411.19;;;-1.18;100.00
30967;BME280;17649;51.836;8.330;2023-03-01T02:34:47;102408.47;;;-1.26;100.00
30967;BME280;17649;51.836;8.330;2023-03-01T02:37:49;102419.34;;;-1.32;100.00
30967;BME280;17649;51.836;8.330;2023-03-01T02:40:52;102414.94;;;-1.39;100.00
30967;BME280;17649;51.836;8.330;2023-03-01T02:43:53;102416.50;;;-1.45;100.00
30967;BME280;17649;51.836;8.330;2023-03-01T02:46:56;102412.91;;;-1.54;100.00
30967;BME280;17649;51.836;8.330;2023-03-01T02:49:57;102399.22;;;-1.60;100.00
30967;BME280;17649;51.836;8.330;2023-03-01T02:53:08;102411.84;;;-1.63;100.00
30967;BME280;17649;51.836;8.330;2023-03-01T02:56:11;102413.56;;;-1.62;100.00
30967;BME280;17649;51.836;8.330;2023-03-01T02:59:13;102410.13;;;-1.64;100.00
30967;BME280;17649;51.836;8.330;2023-03-01T03:02:29;102405.75;;;-1.70;100.00
30967;BME280;17649;51.836;8.330;2023-03-01T03:05:36;102399.81;;;-1.72;100.00
30967;BME280;17649;51.836;8.330;2023-03-01T03:08:36;102386.97;;;-1.78;100.00
30967;BME280;17649;51.836;8.330;2023-03-01T03:11:37;102392.91;;;-1.77;100.00
30967;BME280;17649;51.836;8.330;2023-03-01T03:14:39;102386.97;;;-1.78;100.00
30967;BME280;17649;51.836;8.330;2023-03-01T03:17:40;102389.44;;;-1.80;100.00
30967;BME280;17649;51.836;8.330;2023-03-01T03:20:42;102376.75;;;-1.80;100.00
30967;BME280;17649;51.836;8.330;2023-03-01T03:23:43;102375.97;;;-1.78;100.00
30967;BME280;17649;51.836;8.330;2023-03-01T03:26:44;102373.31;;;-1.83;100.00
30967;BME280;17649;51.836;8.330;2023-03-01T03:29:44;102374.94;;;-1.85;100.00
30967;BME280;17649;51.836;8.330;2023-03-01T03:32:46;102368.09;;;-1.89;100.00
30967;BME280;17649;51.836;8.330;2023-03-01T03:35:56;102376.41;;;-1.95;100.00
30967;BME280;17649;51.836;8.330;2023-03-01T03:38:56;102367.03;;;-1.97;100.00
30967;BME280;17649;51.836;8.330;2023-03-01T03:41:57;102361.13;;;-1.96;100.00
30967;BME280;17649;51.836;8.330;2023-03-01T03:44:57;102358.72;;;-1.92;100.00
30967;BME280;17649;51.836;8.330;2023-03-01T03:47:58;102351.88;;;-1.94;100.00
30967;BME280;17649;51.836;8.330;2023-03-01T03:50:58;102349.22;;;-2.00;100.00
30967;BME280;17649;51.836;8.330;2023-03-01T03:53:59;102346.75;;;-1.97;100.00
30967;BME280;17649;51.836;8.330;2023-03-01T03:56:59;102355.28;;;-1.94;100.00
30967;BME280;17649;51.836;8.330;2023-03-01T03:59:59;102349.47;;;-1.90;100.00
30967;BME280;17649;51.836;8.330;2023-03-01T04:03:00;102358.69;;;-1.93;100.00
30967;BME280;17649;51.836;8.330;2023-03-01T04:06:01;102355.06;;;-2.03;100.00
30967;BME280;17649;51.836;8.330;2023-03-01T04:09:02;102359.25;;;-2.05;100.00
30967;BME280;17649;51.836;8.330;2023-03-01T04:12:03;102359.22;;;-2.06;100.00
30967;BME280;17649;51.836;8.330;2023-03-01T04:15:05;102362.59;;;-2.07;100.00
30967;BME280;17649;51.836;8.330;2023-03-01T04:18:14;102356.72;;;-2.05;100.00
30967;BME280;17649;51.836;8.330;2023-03-01T04:21:15;102350.78;;;-2.05;100.00
30967;BME280;17649;51.836;8.330;2023-03-01T04:24:15;102352.44;;;-2.07;100.00
30967;BME280;17649;51.836;8.330;2023-03-01T04:27:16;102351.41;;;-2.14;100.00
30967;BME280;17649;51.836;8.330;2023-03-01T04:30:17;102358.84;;;-2.22;100.00
30967;BME280;17649;51.836;8.330;2023-03-01T04:33:18;102359.69;;;-2.21;100.00
30967;BME280;17649;51.836;8.330;2023-03-01T04:36:21;102358.84;;;-2.22;100.00
30967;BME280;17649;51.836;8.330;2023-03-01T04:39:22;102361.31;;;-2.23;100.00
30967;BME280;17649;51.836;8.330;2023-03-01T04:42:22;102352.78;;;-2.27;100.00
30967;BME280;17649;51.836;8.330;2023-03-01T04:45:23;102366.28;;;-2.28;100.00
30967;BME280;17649;51.836;8.330;2023-03-01T04:48:24;102360.31;;;-2.30;100.00
30967;BME280;17649;51.836;8.330;2023-03-01T04:51:24;102353.56;;;-2.29;100.00
30967;BME280;17649;51.836;8.330;2023-03-01T04:54:25;102358.59;;;-2.31;100.00
30967;BME280;17649;51.836;8.330;2023-03-01T04:57:26;102352.59;;;-2.34;100.00
30967;BME280;17649;51.836;8.330;2023-03-01T05:00:26;102353.50;;;-2.32;100.00
30967;BME280;17649;51.836;8.330;2023-03-01T05:03:27;102356.75;;;-2.38;100.00
30967;BME280;17649;51.836;8.330;2023-03-01T05:06:28;102342.22;;;-2.44;100.00
30967;BME280;17649;51.836;8.330;2023-03-01T05:09:29;102340.44;;;-2.48;100.00
30967;BME280;17649;51.836;8.330;2023-03-01T05:12:29;102345.47;;;-2.49;100.00
30967;BME280;17649;51.836;8.330;2023-03-01T05:15:31;102345.38;;;-2.52;100.00
30967;BME280;17649;51.836;8.330;2023-03-01T05:18:32;102348.06;;;-2.46;100.00
30967;BME280;17649;51.836;8.330;2023-03-01T05:21:33;102350.72;;;-2.42;100.00
30967;BME280;17649;51.836;8.330;2023-03-01T05:24:34;102351.75;;;-2.35;100.00
30967;BME280;17649;51.836;8.330;2023-03-01T05:27:36;102354.28;;;-2.35;100.00
30967;BME280;17649;51.836;8.330;2023-03-01T05:30:36;102349.31;;;-2.30;100.00
30967;BME280;17649;51.836;8.330;2023-03-01T05:33:40;102345.66;;;-2.42;100.00
30967;BME280;17649;51.836;8.330;2023-03-01T05:36:40;102343.66;;;-2.53;100.00
30967;BME280;17649;51.836;8.330;2023-03-01T05:39:41;102343.47;;;-2.61;100.00
30967;BME280;17649;51.836;8.330;2023-03-01T05:42:55;102335.75;;;-2.65;100.00
30967;BME280;17649;51.836;8.330;2023-03-01T05:45:57;102338.25;;;-2.67;100.00
30967;BME280;17649;51.836;8.330;2023-03-01T05:48:58;102323.78;;;-2.70;100.00
30967;BME280;17649;51.836;8.330;2023-03-01T05:52:00;102328.97;;;-2.66;100.00
30967;BME280;17649;51.836;8.330;2023-03-01T05:55:00;102328.91;;;-2.68;100.00
30967;BME280;17649;51.836;8.330;2023-03-01T05:58:03;102331.53;;;-2.65;100.00
30967;BME280;17649;51.836;8.330;2023-03-01T06:01:13;102337.53;;;-2.61;100.00
30967;BME280;17649;51.836;8.330;2023-03-01T06:04:17;102333.25;;;-2.64;100.00
30967;BME280;17649;51.836;8.330;2023-03-01T06:07:17;102348.59;;;-2.58;100.00
30967;BME280;17649;51.836;8.330;2023-03-01T06:10:18;102352.13;;;-2.53;100.00
30967;BME280;17649;51.836;8.330;2023-03-01T06:13:19;102341.78;;;-2.60;100.00
30967;BME280;17649;51.836;8.330;2023-03-01T06:16:20;102356.88;;;-2.65;100.00
30967;BME280;17649;51.836;8.330;2023-03-01T06:19:20;102347.44;;;-2.69;100.00
30967;BME280;17649;51.836;8.330;2023-03-01T06:22:20;102355.88;;;-2.70;100.00
30967;BME280;17649;51.836;8.330;2023-03-01T06:25:22;102356.84;;;-2.66;100.00
30967;BME280;17649;51.836;8.330;2023-03-01T06:28:23;102355.19;;;-2.64;100.00
30967;BME280;17649;51.836;8.330;2023-03-01T06:31:23;102357.00;;;-2.60;100.00
30967;BME280;17649;51.836;8.330;2023-03-01T06:34:24;102353.75;;;-2.55;100.00
30967;BME280;17649;51.836;8.330;2023-03-01T06:37:25;102353.66;;;-2.58;100.00
30967;BME280;17649;51.836;8.330;2023-03-01T06:40:26;102345.44;;;-2.51;100.00
30967;BME280;17649;51.836;8.330;2023-03-01T06:43:26;102345.59;;;-2.43;100.00
30967;BME280;17649;51.836;8.330;2023-03-01T06:46:26;102347.53;;;-2.34;100.00
30967;BME280;17649;51.836;8.330;2023-03-01T06:49:27;102349.34;;;-2.29;100.00
30967;BME280;17649;51.836;8.330;2023-03-01T06:52:27;102345.97;;;-2.29;100.00
30967;BME280;17649;51.836;8.330;2023-03-01T06:55:28;102338.38;;;-2.28;100.00
30967;BME280;17649;51.836;8.330;2023-03-01T06:58:29;102340.91;;;-2.28;100.00
30967;BME280;17649;51.836;8.330;2023-03-01T07:01:33;102337.56;;;-2.27;100.00
30967;BME280;17649;51.836;8.330;2023-03-01T07:04:33;102349.63;;;-2.18;100.00
30967;BME280;17649;51.836;8.330;2023-03-01T07:07:36;102329.34;;;-2.18;100.00
30967;BME280;17649;51.836;8.330;2023-03-01T07:10:39;102338.91;;;-2.08;100.00
30967;BME280;17649;51.836;8.330;2023-03-01T07:13:40;102339.91;;;-2.00;100.00
30967;BME280;17649;51.836;8.330;2023-03-01T07:16:40;102322.25;;;-1.95;100.00
30967;BME280;17649;51.836;8.330;2023-03-01T07:19:41;102335.41;;;-1.77;100.00
30967;BME280;17649;51.836;8.330;2023-03-01T07:22:41;102329.63;;;-1.70;100.00
30967;BME280;17649;51.836;8.330;2023-03-01T07:25:44;102328.19;;;-1.59;100.00
30967;BME280;17649;51.836;8.330;2023-03-01T07:28:51;102325.88;;;-1.48;100.00
30967;BME280;17649;51.836;8.330;2023-03-01T07:31:51;102322.63;;;-1.41;100.00
30967;BME280;17649;51.836;8.330;2023-03-01T07:34:52;102323.75;;;-1.28;100.00
30967;BME280;17649;51.836;8.330;2023-03-01T07:37:53;102313.06;;;-1.12;100.00
30967;BME280;17649;51.836;8.330;2023-03-01T07:40:54;102312.44;;;-1.02;100.00
30967;BME280;17649;51.836;8.330;2023-03-01T07:43:57;102311.88;;;-0.87;100.00
30967;BME280;17649;51.836;8.330;2023-03-01T07:46:58;102306.28;;;-0.69;100.00
30967;BME280;17649;51.836;8.330;2023-03-01T07:50:01;102303.13;;;-0.54;100.00
30967;BME280;17649;51.836;8.330;2023-03-01T07:53:02;102305.94;;;-0.39;100.00
30967;BME280;17649;51.836;8.330;2023-03-01T07:56:08;102306.16;;;-0.27;100.00
30967;BME280;17649;51.836;8.330;2023-03-01T07:59:09;102310.59;;;-0.14;100.00
30967;BME280;17649;51.836;8.330;2023-03-01T08:02:10;102312.56;;;0.04;100.00
30967;BME280;17649;51.836;8.330;2023-03-01T08:05:11;102312.81;;;0.19;100.00
30967;BME280;17649;51.836;8.330;2023-03-01T08:08:11;102314.72;;;0.36;100.00
30967;BME280;17649;51.836;8.330;2023-03-01T08:11:13;102312.38;;;0.49;100.00
30967;BME280;17649;51.836;8.330;2023-03-01T08:14:14;102305.75;;;0.61;100.00
30967;BME280;17649;51.836;8.330;2023-03-01T08:17:14;102316.16;;;0.79;100.00
30967;BME280;17649;51.836;8.330;2023-03-01T08:20:16;102306.97;;;0.92;100.00
30967;BME280;17649;51.836;8.330;2023-03-01T08:23:23;102304.56;;;1.05;100.00
30967;BME280;17649;51.836;8.330;2023-03-01T08:26:26;102303.06;;;1.24;100.00
30967;BME280;17649;51.836;8.330;2023-03-01T08:29:27;102298.88;;;1.32;100.00
30967;BME280;17649;51.836;8.330;2023-03-01T08:32:27;102297.38;;;1.53;100.00
30967;BME280;17649;51.836;8.330;2023-03-01T08:35:28;102288.94;;;1.63;100.00
30967;BME280;17649;51.836;8.330;2023-03-01T08:38:28;102295.06;;;1.82;100.00
30967;BME280;17649;51.836;8.330;2023-03-01T08:41:29;102288.38;;;1.94;100.00
30967;BME280;17649;51.836;8.330;2023-03-01T08:44:29;102287.56;;;2.07;100.00
30967;BME280;17649;51.836;8.330;2023-03-01T08:47:30;102294.50;;;2.24;100.00
30967;BME280;17649;51.836;8.330;2023-03-01T08:50:30;102291.19;;;2.42;100.00
30967;BME280;17649;51.836;8.330;2023-03-01T08:53:30;102284.47;;;2.56;100.00
30967;BME280;17649;51.836;8.330;2023-03-01T08:56:31;102289.63;;;2.69;100.00
30967;BME280;17649;51.836;8.330;2023-03-01T08:59:32;102286.22;;;2.75;100.00
30967;BME280;17649;51.836;8.330;2023-03-01T09:02:37;102291.38;;;2.83;100.00
30967;BME280;17649;51.836;8.330;2023-03-01T09:05:38;102278.66;;;3.01;100.00
30967;BME280;17649;51.836;8.330;2023-03-01T09:08:41;102275.25;;;3.10;100.00
30967;BME280;17649;51.836;8.330;2023-03-01T09:11:43;102260.78;;;3.16;100.00
30967;BME280;17649;51.836;8.330;2023-03-01T09:14:45;102277.00;;;3.34;100.00
30967;BME280;17649;51.836;8.330;2023-03-01T09:17:46;102261.66;;;3.43;100.00
30967;BME280;17649;51.836;8.330;2023-03-01T09:20:46;102263.34;;;3.51;100.00
30967;BME280;17649;51.836;8.330;2023-03-01T09:23:47;102249.72;;;3.51;100.00
30967;BME280;17649;51.836;8.330;2023-03-01T09:26:48;102248.00;;;3.53;100.00
30967;BME280;17649;51.836;8.330;2023-03-01T09:29:49;102250.56;;;3.59;100.00
30967;BME280;17649;51.836;8.330;2023-03-01T09:32:49;102249.69;;;3.68;100.00
30967;BME280;17649;51.836;8.330;2023-03-01T09:35:49;102248.00;;;3.79;100.00
30967;BME280;17649;51.836;8.330;2023-03-01T09:38:50;102245.41;;;3.83;100.00
30967;BME280;17649;51.836;8.330;2023-03-01T09:42:00;102237.72;;;3.93;100.00
30967;BME280;17649;51.836;8.330;2023-03-01T09:45:10;102241.97;;;4.04;100.00
30967;BME280;17649;51.836;8.330;2023-03-01T09:48:18;102242.81;;;4.06;100.00
30967;BME280;17649;51.836;8.330;2023-03-01T09:51:32;102247.06;;;4.15;100.00
30967;BME280;17649;51.836;8.330;2023-03-01T09:54:33;102235.91;;;4.31;100.00
30967;BME280;17649;51.836;8.330;2023-03-01T09:57:37;102242.75;;;4.34;100.00
30967;BME280;17649;51.836;8.330;2023-03-01T10:00:42;102236.75;;;4.36;100.00
30967;BME280;17649;51.836;8.330;2023-03-01T10:03:47;102232.44;;;4.51;100.00
30967;BME280;17649;51.836;8.330;2023-03-01T10:10:08;102229.81;;;4.61;100.00
30967;BME280;17649;51.836;8.330;2023-03-01T10:16:56;102231.44;;;4.79;100.00
30967;BME280;17649;51.836;8.330;2023-03-01T10:23:12;102230.47;;;4.97;100.00
30967;BME280;17649;51.836;8.330;2023-03-01T10:29:49;102226.19;;;4.97;100.00
30967;BME280;17649;51.836;8.330;2023-03-01T10:32:53;102213.31;;;5.08;100.00
30967;BME280;17649;51.836;8.330;2023-03-01T10:35:53;102206.44;;;5.12;100.00
30967;BME280;17649;51.836;8.330;2023-03-01T10:38:56;102206.31;;;5.25;100.00
30967;BME280;17649;51.836;8.330;2023-03-01T10:45:35;102200.13;;;5.49;100.00
30967;BME280;17649;51.836;8.330;2023-03-01T10:48:36;102198.28;;;5.62;100.00
30967;BME280;17649;51.836;8.330;2023-03-01T10:51:39;102192.25;;;5.69;100.00
30967;BME280;17649;51.836;8.330;2023-03-01T10:54:40;102189.47;;;5.92;100.00
30967;BME280;17649;51.836;8.330;2023-03-01T10:57:41;102177.31;;;6.06;100.00
30967;BME280;17649;51.836;8.330;2023-03-01T11:00:57;102185.63;;;6.28;100.00
30967;BME280;17649;51.836;8.330;2023-03-01T11:07:07;102189.56;;;6.55;100.00
30967;BME280;17649;51.836;8.330;2023-03-01T11:10:12;102180.84;;;6.65;100.00
30967;BME280;17649;51.836;8.330;2023-03-01T11:13:19;102170.50;;;6.70;100.00
30967;BME280;17649;51.836;8.330;2023-03-01T11:16:37;102175.06;;;7.08;100.00
30967;BME280;17649;51.836;8.330;2023-03-01T11:19:38;102178.31;;;7.68;100.00
30967;BME280;17649;51.836;8.330;2023-03-01T11:22:49;102167.38;;;9.18;97.60
30967;BME280;17649;51.836;8.330;2023-03-01T11:26:01;102158.94;;;10.94;66.98
30967;BME280;17649;51.836;8.330;2023-03-01T11:29:06;102155.66;;;12.37;56.50
30967;BME280;17649;51.836;8.330;2023-03-01T11:32:13;102158.09;;;13.48;50.07
30967;BME280;17649;51.836;8.330;2023-03-01T11:35:18;102150.56;;;14.01;50.23
30967;BME280;17649;51.836;8.330;2023-03-01T11:38:29;102149.00;;;14.54;52.66
30967;BME280;17649;51.836;8.330;2023-03-01T11:41:34;102150.09;;;15.03;43.98
30967;BME280;17649;51.836;8.330;2023-03-01T11:44:43;102151.44;;;15.45;42.91
30967;BME280;17649;51.836;8.330;2023-03-01T12:05:17;102131.59;;;16.72;38.78
30967;BME280;17649;51.836;8.330;2023-03-01T12:08:35;102119.78;;;16.94;37.09
30967;BME280;17649;51.836;8.330;2023-03-01T12:11:43;102122.41;;;17.39;38.02
30967;BME280;17649;51.836;8.330;2023-03-01T12:15:00;102122.91;;;17.59;35.73
30967;BME280;17649;51.836;8.330;2023-03-01T12:27:55;102080.78;;;18.46;36.06
30967;BME280;17649;51.836;8.330;2023-03-01T12:34:42;102067.38;;;17.83;33.48
30967;BME280;17649;51.836;8.330;2023-03-01T13:09:16;102030.75;;;19.02;29.79
30967;BME280;17649;51.836;8.330;2023-03-01T13:15:42;102028.44;;;18.85;29.65
30967;BME280;17649;51.836;8.330;2023-03-01T13:18:43;102021.84;;;18.52;30.96
30967;BME280;17649;51.836;8.330;2023-03-01T13:21:53;102012.50;;;18.08;31.25
30967;BME280;17649;51.836;8.330;2023-03-01T13:25:19;102007.00;;;19.54;31.02
30967;BME280;17649;51.836;8.330;2023-03-01T13:31:57;101999.13;;;21.41;32.20
30967;BME280;17649;51.836;8.330;2023-03-01T13:44:38;101985.66;;;22.42;29.05
30967;BME280;17649;51.836;8.330;2023-03-01T13:47:40;101993.06;;;22.89;26.52
30967;BME280;17649;51.836;8.330;2023-03-01T13:50:52;101994.38;;;21.89;26.24
30967;BME280;17649;51.836;8.330;2023-03-01T13:53:55;101989.88;;;22.12;27.19
30967;BME280;17649;51.836;8.330;2023-03-01T13:56:58;101979.16;;;22.46;25.84
30967;BME280;17649;51.836;8.330;2023-03-01T13:59:59;101974.53;;;22.59;27.69
30967;BME280;17649;51.836;8.330;2023-03-01T14:09:14;101964.91;;;23.40;26.48
30967;BME280;17649;51.836;8.330;2023-03-01T14:18:39;101955.66;;;23.65;24.68
30967;BME280;17649;51.836;8.330;2023-03-01T14:21:43;101946.47;;;24.46;24.11
30967;BME280;17649;51.836;8.330;2023-03-01T14:24:55;101944.28;;;24.79;23.43
30967;BME280;17649;51.836;8.330;2023-03-01T14:31:00;101950.72;;;24.66;22.45
30967;BME280;17649;51.836;8.330;2023-03-01T14:34:01;101934.09;;;24.47;22.91
30967;BME280;17649;51.836;8.330;2023-03-01T14:37:32;101935.09;;;23.97;23.68
30967;BME280;17649;51.836;8.330;2023-03-01T14:40:36;101933.91;;;22.71;23.43
30967;BME280;17649;51.836;8.330;2023-03-01T14:43:39;101929.66;;;22.08;24.97
30967;BME280;17649;51.836;8.330;2023-03-01T14:46:43;101925.28;;;19.22;26.48
30967;BME280;17649;51.836;8.330;2023-03-01T14:49:43;101937.75;;;16.19;29.45
30967;BME280;17649;51.836;8.330;2023-03-01T14:52:46;101936.09;;;14.06;32.84
30967;BME280;17649;51.836;8.330;2023-03-01T14:55:51;101937.34;;;12.84;34.69
30967;BME280;17649;51.836;8.330;2023-03-01T14:58:53;101945.09;;;11.81;38.61
30967;BME280;17649;51.836;8.330;2023-03-01T15:01:58;101932.97;;;11.13;40.16
30967;BME280;17649;51.836;8.330;2023-03-01T15:05:02;101926.97;;;10.37;40.38
30967;BME280;17649;51.836;8.330;2023-03-01T15:08:04;101928.25;;;9.98;40.90
30967;BME280;17649;51.836;8.330;2023-03-01T15:11:29;101928.63;;;9.57;42.25
30967;BME280;17649;51.836;8.330;2023-03-01T15:14:42;101921.59;;;9.33;46.70
30967;BME280;17649;51.836;8.330;2023-03-01T15:17:43;101915.41;;;9.09;48.63
30967;BME280;17649;51.836;8.330;2023-03-01T15:20:43;101922.81;;;8.90;57.20
30967;BME280;17649;51.836;8.330;2023-03-01T15:23:49;101922.06;;;8.87;55.43
30967;BME280;17649;51.836;8.330;2023-03-01T15:26:51;101917.16;;;8.76;56.03
30967;BME280;17649;51.836;8.330;2023-03-01T15:29:59;101913.16;;;8.66;62.77
30967;BME280;17649;51.836;8.330;2023-03-01T15:36:44;101919.34;;;8.25;61.89
30967;BME280;17649;51.836;8.330;2023-03-01T15:39:56;101909.25;;;8.16;59.79
30967;BME280;17649;51.836;8.330;2023-03-01T15:43:02;101912.19;;;8.00;59.49
30967;BME280;17649;51.836;8.330;2023-03-01T15:46:02;101911.09;;;7.75;58.84
30967;BME280;17649;51.836;8.330;2023-03-01T15:49:06;101913.72;;;7.72;62.75
30967;BME280;17649;51.836;8.330;2023-03-01T15:52:25;101910.63;;;7.56;75.59
30967;BME280;17649;51.836;8.330;2023-03-01T15:55:31;101903.13;;;7.47;77.50
30967;BME280;17649;51.836;8.330;2023-03-01T16:02:30;101898.44;;;7.24;95.83
30967;BME280;17649;51.836;8.330;2023-03-01T16:05:33;101905.44;;;7.19;87.97
30967;BME280;17649;51.836;8.330;2023-03-01T16:08:34;101905.50;;;7.16;84.51
30967;BME280;17649;51.836;8.330;2023-03-01T16:11:35;101903.31;;;6.96;97.35
30967;BME280;17649;51.836;8.330;2023-03-01T16:14:37;101901.75;;;6.89;100.00
30967;BME280;17649;51.836;8.330;2023-03-01T16:17:37;101908.97;;;6.70;91.51
30967;BME280;17649;51.836;8.330;2023-03-01T16:20:39;101911.53;;;6.69;96.85
30967;BME280;17649;51.836;8.330;2023-03-01T16:23:40;101909.00;;;6.67;100.00
30967;BME280;17649;51.836;8.330;2023-03-01T16:26:41;101907.50;;;6.57;100.00
30967;BME280;17649;51.836;8.330;2023-03-01T16:29:42;101909.28;;;6.52;100.00
30967;BME280;17649;51.836;8.330;2023-03-01T16:32:44;101909.44;;;6.44;100.00
30967;BME280;17649;51.836;8.330;2023-03-01T16:35:45;101903.72;;;6.28;100.00
30967;BME280;17649;51.836;8.330;2023-03-01T16:38:46;101908.13;;;6.20;100.00
30967;BME280;17649;51.836;8.330;2023-03-01T16:41:48;101907.47;;;6.08;100.00
30967;BME280;17649;51.836;8.330;2023-03-01T16:44:54;101893.97;;;5.93;100.00
30967;BME280;17649;51.836;8.330;2023-03-01T16:47:55;101904.28;;;5.92;100.00
30967;BME280;17649;51.836;8.330;2023-03-01T16:50:59;101894.91;;;5.88;100.00
30967;BME280;17649;51.836;8.330;2023-03-01T16:54:00;101899.28;;;5.83;100.00
30967;BME280;17649;51.836;8.330;2023-03-01T16:57:01;101912.19;;;5.77;100.00
30967;BME280;17649;51.836;8.330;2023-03-01T17:00:05;101898.69;;;5.62;100.00
30967;BME280;17649;51.836;8.330;2023-03-01T17:03:07;101918.53;;;5.53;100.00
30967;BME280;17649;51.836;8.330;2023-03-01T17:06:11;101902.41;;;5.42;100.00
30967;BME280;17649;51.836;8.330;2023-03-01T17:09:12;101900.91;;;5.27;100.00
30967;BME280;17649;51.836;8.330;2023-03-01T17:12:16;101908.84;;;5.05;100.00
30967;BME280;17649;51.836;8.330;2023-03-01T17:15:19;101913.22;;;4.97;100.00
30967;BME280;17649;51.836;8.330;2023-03-01T17:18:20;101904.78;;;4.86;100.00
30967;BME280;17649;51.836;8.330;2023-03-01T17:21:20;101923.56;;;4.88;100.00
30967;BME280;17649;51.836;8.330;2023-03-01T17:24:21;101920.19;;;4.85;100.00
30967;BME280;17649;51.836;8.330;2023-03-01T17:27:21;101930.53;;;4.75;100.00
30967;BME280;17649;51.836;8.330;2023-03-01T17:30:22;101944.25;;;4.73;100.00
30967;BME280;17649;51.836;8.330;2023-03-01T17:33:22;101941.81;;;4.62;100.00
30967;BME280;17649;51.836;8.330;2023-03-01T17:36:23;101946.19;;;4.49;100.00
30967;BME280;17649;51.836;8.330;2023-03-01T17:39:24;101937.75;;;4.37;100.00
30967;BME280;17649;51.836;8.330;2023-03-01T17:42:27;101929.31;;;4.26;100.00
30967;BME280;17649;51.836;8.330;2023-03-01T17:45:28;101937.91;;;4.18;100.00
30967;BME280;17649;51.836;8.330;2023-03-01T17:48:29;101933.75;;;4.05;100.00
30967;BME280;17649;51.836;8.330;2023-03-01T17:51:29;101948.28;;;4.02;100.00
30967;BME280;17649;51.836;8.330;2023-03-01T17:54:29;101944.91;;;3.94;100.00
30967;BME280;17649;51.836;8.330;2023-03-01T17:57:33;101956.03;;;3.91;100.00